createdAt,value
2017-04-09T08:59:25.926Z,45.90
2017-04-09T09:00:37.179Z,48.80
2017-04-09T09:01:35.565Z,45.70
2017-04-09T09:02:33.938Z,46.00
2017-04-09T09:03:32.294Z,45.50
2017-04-09T09:04:30.637Z,46.80
2017-04-09T09:05:29.085Z,46.40
2017-04-09T09:06:28.178Z,47.60
2017-04-09T09:07:26.553Z,47.60
2017-04-09T09:08:25.153Z,43.30
2017-04-09T09:09:23.638Z,46.40
2017-04-09T09:10:22.156Z,43.80
2017-04-09T09:11:21.041Z,46.80
2017-04-09T09:12:19.439Z,48.10
2017-04-09T09:13:17.764Z,47.10
2017-04-09T09:14:16.073Z,45.80
2017-04-09T09:15:14.424Z,47.00
2017-04-09T09:16:12.739Z,46.00
2017-04-09T09:17:11.078Z,47.80
2017-04-09T09:18:09.423Z,48.70
2017-04-09T09:19:07.939Z,48.80
2017-04-09T09:20:06.552Z,47.80
2017-04-09T09:21:04.892Z,45.50
2017-04-09T09:22:03.264Z,48.80
2017-04-09T09:23:01.623Z,46.30
2017-04-09T09:23:59.954Z,47.90
2017-04-09T09:24:58.332Z,46.50
2017-04-09T09:25:56.919Z,47.50
2017-04-09T09:26:55.273Z,47.00
2017-04-09T09:27:53.673Z,47.00
2017-04-09T09:28:52.079Z,46.70
2017-04-09T09:29:50.399Z,47.60
2017-04-09T09:30:48.710Z,45.00
2017-04-09T09:31:47.109Z,45.50
2017-04-09T09:32:45.539Z,45.30
2017-04-09T09:33:43.897Z,48.40
2017-04-09T09:34:42.317Z,50.10
2017-04-09T09:35:40.640Z,47.40
2017-04-09T09:36:39.171Z,47.90
2017-04-09T09:37:37.681Z,46.90
2017-04-09T09:38:36.059Z,44.80
2017-04-09T09:39:35.169Z,45.50
2017-04-09T09:40:34.298Z,45.00
2017-04-09T09:41:32.653Z,45.00
2017-04-09T09:42:30.991Z,44.20
2017-04-09T09:43:29.443Z,44.70
2017-04-09T09:44:28.590Z,45.50
2017-04-09T09:45:27.010Z,45.50
2017-04-09T09:46:26.126Z,43.90
2017-04-09T09:47:24.558Z,43.80
2017-04-09T09:48:23.678Z,45.80
2017-04-09T09:49:22.131Z,45.70
2017-04-09T09:50:20.470Z,47.30
2017-04-09T09:51:18.777Z,45.90
2017-04-09T09:52:17.107Z,43.30
2017-04-09T09:53:16.243Z,42.80
2017-04-09T09:54:15.033Z,42.70
2017-04-09T09:55:13.500Z,41.40
2017-04-09T09:56:11.831Z,43.00
2017-04-09T09:57:10.292Z,40.90
2017-04-09T09:58:08.679Z,40.50
2017-04-09T09:59:07.037Z,41.10
2017-04-09T10:00:05.601Z,40.30
2017-04-09T10:01:03.978Z,42.40
2017-04-09T10:02:02.671Z,45.10
2017-04-09T10:03:00.968Z,47.20
2017-04-09T10:03:59.269Z,45.10
2017-04-09T10:04:57.582Z,47.90
2017-04-09T10:05:56.269Z,45.90
2017-04-09T10:06:54.930Z,44.30
2017-04-09T10:07:53.276Z,46.10
2017-04-09T10:08:51.582Z,43.80
2017-04-09T10:09:49.915Z,41.20
2017-04-09T10:10:48.252Z,42.90
2017-04-09T10:11:46.598Z,44.60
2017-04-09T10:12:45.001Z,44.00
2017-04-09T10:13:43.355Z,44.90
2017-04-09T10:14:41.678Z,45.60
2017-04-09T10:15:40.019Z,42.80
2017-04-09T10:16:38.367Z,42.40
2017-04-09T10:17:36.692Z,44.70
2017-04-09T10:18:35.107Z,44.00
2017-04-09T10:19:33.431Z,45.20
2017-04-09T10:20:31.789Z,44.10
2017-04-09T10:21:30.279Z,42.60
2017-04-09T10:22:28.802Z,43.60
2017-04-09T10:23:27.172Z,43.70
2017-04-09T10:24:25.603Z,45.00
2017-04-09T10:25:23.938Z,45.50
2017-04-09T10:26:22.266Z,43.20
2017-04-09T10:27:21.393Z,40.50
2017-04-09T10:28:19.801Z,41.10
2017-04-09T10:29:18.871Z,40.00
2017-04-09T10:30:17.309Z,39.90
2017-04-09T10:31:15.629Z,41.80
2017-04-09T10:32:13.918Z,41.10
2017-04-09T10:33:12.271Z,39.60
2017-04-09T10:34:11.387Z,38.90
2017-04-09T10:35:09.692Z,38.70
2017-04-09T10:36:08.200Z,42.00
2017-04-09T10:37:06.521Z,41.30
2017-04-09T10:38:04.839Z,42.80
2017-04-09T10:39:03.150Z,42.10
2017-04-09T10:40:01.479Z,39.50
2017-04-09T10:40:59.959Z,40.40
2017-04-09T10:41:58.642Z,39.60
2017-04-09T10:42:57.090Z,38.60
2017-04-09T10:43:55.467Z,37.80
2017-04-09T10:44:53.799Z,38.60
2017-04-09T10:45:52.902Z,36.10
2017-04-09T10:46:51.277Z,36.10
2017-04-09T10:47:49.678Z,39.80
2017-04-09T10:48:47.998Z,39.90
2017-04-09T10:49:46.318Z,38.90
2017-04-09T10:50:44.625Z,42.60
2017-04-09T10:51:42.969Z,41.50
2017-04-09T10:52:41.299Z,43.00
2017-04-09T10:53:39.702Z,42.00
2017-04-09T10:54:38.005Z,40.80
2017-04-09T10:55:37.139Z,41.50
2017-04-09T10:56:35.627Z,41.50
2017-04-09T10:57:34.017Z,39.50
2017-04-09T10:58:33.095Z,37.00
2017-04-09T10:59:31.476Z,37.60
2017-04-09T11:00:29.793Z,39.80
2017-04-09T11:01:28.125Z,42.20
2017-04-09T11:02:26.446Z,40.90
2017-04-09T11:03:24.754Z,40.20
2017-04-09T11:04:23.068Z,42.90
2017-04-09T11:05:22.105Z,35.50
2017-04-09T11:06:20.419Z,38.10
2017-04-09T11:07:18.764Z,40.20
2017-04-09T11:08:17.071Z,39.10
2017-04-09T11:09:15.382Z,39.90
2017-04-09T11:10:13.731Z,37.50
2017-04-09T11:11:12.244Z,39.70
2017-04-09T11:12:10.573Z,35.50
2017-04-09T11:13:08.983Z,39.20
2017-04-09T11:14:07.316Z,40.40
2017-04-09T11:15:05.685Z,40.70
2017-04-09T11:16:03.986Z,40.10
2017-04-09T11:17:03.278Z,37.50
2017-04-09T11:18:01.570Z,37.50
2017-04-09T11:19:00.135Z,38.90
2017-04-09T11:19:58.523Z,34.60
2017-04-09T11:20:57.618Z,35.90
2017-04-09T11:21:56.241Z,35.70
2017-04-09T11:22:55.531Z,36.80
2017-04-09T11:23:54.750Z,37.80
2017-04-09T11:24:54.579Z,35.60
2017-04-09T11:25:53.653Z,37.30
2017-04-09T11:26:51.958Z,37.20
2017-04-09T11:27:50.268Z,35.50
2017-04-09T11:28:48.783Z,36.90
2017-04-09T11:29:47.102Z,37.50
2017-04-09T11:30:45.418Z,36.60
2017-04-09T11:31:43.729Z,36.10
2017-04-09T11:32:43.562Z,37.80
2017-04-09T11:33:42.722Z,37.10
2017-04-09T11:35:44.932Z,37.00
2017-04-09T11:36:44.175Z,38.30
2017-04-09T11:37:42.628Z,38.30
2017-04-09T11:38:41.119Z,36.60
2017-04-09T11:39:39.562Z,35.90
2017-04-09T11:40:38.287Z,36.20
2017-04-09T11:41:38.350Z,39.30
2017-04-09T11:42:36.818Z,39.30
2017-04-09T11:43:35.143Z,38.80
2017-04-09T11:44:34.373Z,36.40
2017-04-09T11:45:32.741Z,36.20
2017-04-09T11:46:31.136Z,36.10
2017-04-09T11:47:29.509Z,33.50
2017-04-09T11:48:29.367Z,36.00
2017-04-09T11:49:27.745Z,36.10
2017-04-09T11:50:26.054Z,33.80
2017-04-09T11:51:24.367Z,33.80
2017-04-09T11:52:22.747Z,35.50
2017-04-09T11:53:21.447Z,33.90
2017-04-09T11:54:19.757Z,35.00
2017-04-09T11:55:18.085Z,36.90
2017-04-09T11:56:16.454Z,36.60
2017-04-09T11:57:14.767Z,36.70
2017-04-09T11:58:13.069Z,37.60
2017-04-09T11:59:11.467Z,35.40
2017-04-09T12:00:09.762Z,37.50
2017-04-09T12:01:08.070Z,35.20
2017-04-09T12:02:06.380Z,34.60
2017-04-09T12:03:04.770Z,34.00
2017-04-09T12:04:03.092Z,35.90
2017-04-09T12:05:01.466Z,37.50
2017-04-09T12:05:59.770Z,35.80
2017-04-09T12:06:58.063Z,36.30
2017-04-09T12:07:56.377Z,36.40
2017-04-09T12:08:54.690Z,35.70
2017-04-09T12:09:52.994Z,34.30
2017-04-09T12:10:52.327Z,33.40
2017-04-09T12:11:51.405Z,35.00
2017-04-09T12:12:49.712Z,35.00
2017-04-09T12:13:48.016Z,31.90
2017-04-09T12:14:46.449Z,31.40
2017-04-09T12:15:44.745Z,32.10
2017-04-09T12:16:43.138Z,30.90
2017-04-09T12:17:41.434Z,35.00
2017-04-09T12:18:40.763Z,35.90
2017-04-09T12:19:39.074Z,33.20
2017-04-09T12:20:37.388Z,32.90
2017-04-09T12:21:35.779Z,32.20
2017-04-09T12:22:34.268Z,34.20
2017-04-09T12:23:32.574Z,35.60
2017-04-09T12:24:30.906Z,36.70
2017-04-09T12:25:33.311Z,33.80
2017-04-09T12:26:31.608Z,33.70
2017-04-09T12:27:29.890Z,32.30
2017-04-09T12:28:28.291Z,33.80
2017-04-09T12:29:26.589Z,32.00
2017-04-09T12:30:24.894Z,33.20
2017-04-09T12:31:23.185Z,34.00
2017-04-09T12:32:21.481Z,35.80
2017-04-09T12:33:19.781Z,32.90
2017-04-09T12:34:19.543Z,31.00
2017-04-09T12:35:17.883Z,34.50
2017-04-09T12:36:16.271Z,30.60
2017-04-09T12:37:14.558Z,30.90
2017-04-09T12:38:12.899Z,27.50
2017-04-09T12:39:11.197Z,28.00
2017-04-09T12:40:09.590Z,29.20
2017-04-09T12:41:07.903Z,29.10
2017-04-09T12:42:06.213Z,29.40
2017-04-09T12:43:04.513Z,29.70
2017-04-09T12:44:02.885Z,28.70
2017-04-09T12:45:01.243Z,29.30
2017-04-09T12:45:59.642Z,27.50
2017-04-09T12:46:57.938Z,23.20
2017-04-09T12:47:56.235Z,20.70
2017-04-09T12:48:54.522Z,20.80
2017-04-09T12:49:52.839Z,24.40
2017-04-09T12:50:51.150Z,20.70
2017-04-09T12:51:49.542Z,21.30
2017-04-09T12:52:47.874Z,24.70
2017-04-09T12:53:46.186Z,28.00
2017-04-09T12:54:44.482Z,30.70
2017-04-09T12:55:42.787Z,26.70
2017-04-09T12:56:41.151Z,26.00
2017-04-09T12:57:39.660Z,25.10
2017-04-09T12:58:39.489Z,25.20
2017-04-09T12:59:37.853Z,25.20
2017-04-09T13:01:35.582Z,23.40
2017-04-09T13:02:34.363Z,20.70
2017-04-09T13:03:33.636Z,19.70
2017-04-09T13:04:32.046Z,21.40
2017-04-09T13:05:30.335Z,20.70
2017-04-09T13:06:28.649Z,19.90
2017-04-09T13:07:26.928Z,22.20
2017-04-09T13:08:25.226Z,22.00
2017-04-09T13:09:23.627Z,25.30
2017-04-09T13:10:21.949Z,22.60
2017-04-09T13:11:20.241Z,24.60
2017-04-09T13:12:18.550Z,21.90
2017-04-09T13:13:16.910Z,21.40
2017-04-09T13:14:15.199Z,20.60
2017-04-09T13:15:13.666Z,24.70
2017-04-09T13:16:12.001Z,21.90
2017-04-09T13:17:10.335Z,22.90
2017-04-09T13:18:08.630Z,23.80
2017-04-09T13:19:06.910Z,23.50
2017-04-09T13:20:05.195Z,22.60
2017-04-09T13:21:04.289Z,23.30
2017-04-09T13:22:02.594Z,21.80
2017-04-09T13:23:00.881Z,24.10
2017-04-09T13:23:59.205Z,23.50
2017-04-09T13:24:57.526Z,23.50
2017-04-09T13:25:55.877Z,22.50
2017-04-09T13:26:54.252Z,22.60
2017-04-09T13:27:52.638Z,23.00
2017-04-09T13:28:50.978Z,23.10
2017-04-09T13:29:49.278Z,25.10
2017-04-09T13:30:47.596Z,27.00
2017-04-09T13:31:45.918Z,24.40
2017-04-09T13:32:44.307Z,23.70
2017-04-09T13:33:42.678Z,26.90
2017-04-09T13:34:40.999Z,25.10
2017-04-09T13:35:39.293Z,23.60
2017-04-09T13:36:37.595Z,24.50
2017-04-09T13:37:35.905Z,22.60
2017-04-09T13:38:34.305Z,22.30
2017-04-09T13:39:32.616Z,23.00
2017-04-09T13:40:30.950Z,21.80
2017-04-09T13:41:29.234Z,20.80
2017-04-09T13:42:27.538Z,21.60
2017-04-09T13:43:25.842Z,27.30
2017-04-09T13:44:24.202Z,22.20
2017-04-09T13:45:22.501Z,22.80
2017-04-09T13:46:20.809Z,25.90
2017-04-09T13:47:19.118Z,21.10
2017-04-09T13:48:17.421Z,22.70
2017-04-09T13:49:15.717Z,20.30
2017-04-09T13:50:14.618Z,17.70
2017-04-09T13:51:12.925Z,17.40
2017-04-09T13:52:11.229Z,16.00
2017-04-09T13:53:09.539Z,15.60
2017-04-09T13:54:07.843Z,15.60
2017-04-09T13:55:06.147Z,15.20
2017-04-09T13:56:04.555Z,15.30
2017-04-09T13:57:02.959Z,16.50
2017-04-09T13:58:01.331Z,16.50
2017-04-09T13:58:59.623Z,17.50
2017-04-09T13:59:57.966Z,16.60
2017-04-09T14:00:56.293Z,16.00
2017-04-09T14:01:54.660Z,17.60
2017-04-09T14:02:52.966Z,18.80
2017-04-09T14:03:51.278Z,18.40
2017-04-09T14:04:49.571Z,19.30
2017-04-09T14:05:47.858Z,18.30
2017-04-09T14:06:46.350Z,19.20
2017-04-09T14:07:44.735Z,18.40
2017-04-09T14:08:43.118Z,18.20
2017-04-09T14:09:41.483Z,19.80
2017-04-09T14:10:39.802Z,20.20
2017-04-09T14:11:38.130Z,19.90
2017-04-09T14:12:36.458Z,19.20
2017-04-09T14:13:34.831Z,20.80
2017-04-09T14:14:33.182Z,19.50
2017-04-09T14:15:31.464Z,18.40
2017-04-09T14:16:29.808Z,19.10
2017-04-09T14:17:28.130Z,19.70
2017-04-09T14:18:26.458Z,18.90
2017-04-09T14:19:24.899Z,21.50
2017-04-09T14:20:23.222Z,21.20
2017-04-09T14:21:21.526Z,23.20
2017-04-09T14:22:19.816Z,22.10
2017-04-09T14:23:18.147Z,21.20
2017-04-09T14:24:16.503Z,22.00
2017-04-09T14:25:14.901Z,21.10
2017-04-09T14:26:13.426Z,21.10
2017-04-09T14:27:11.715Z,21.30
2017-04-09T14:28:10.052Z,20.40
2017-04-09T14:29:08.415Z,20.20
2017-04-09T14:30:06.738Z,20.80
2017-04-09T14:31:05.253Z,22.60
2017-04-09T14:32:04.375Z,24.40
2017-04-09T14:33:04.252Z,20.90
2017-04-09T14:34:03.349Z,21.60
2017-04-09T14:35:02.558Z,21.80
2017-04-09T14:36:00.930Z,21.80
2017-04-09T14:36:59.363Z,20.60
2017-04-09T14:37:57.706Z,20.80
2017-04-09T14:38:56.046Z,20.00
2017-04-09T14:39:54.377Z,21.00
2017-04-09T14:40:52.745Z,21.20
2017-04-09T14:41:51.142Z,21.00
2017-04-09T14:42:49.583Z,24.40
2017-04-09T14:43:48.862Z,23.30
2017-04-09T14:44:47.169Z,23.20
2017-04-09T17:26:29.198Z,29.80
2017-04-09T17:27:27.509Z,29.70
2017-04-09T17:28:25.857Z,31.20
2017-04-09T17:29:24.190Z,31.80
2017-04-09T17:30:22.522Z,32.30
2017-04-09T17:31:21.627Z,33.20
2017-04-09T17:32:19.958Z,33.20
2017-04-09T17:33:18.286Z,34.70
2017-04-09T17:34:17.426Z,35.90
2017-04-09T17:35:15.781Z,35.90
2017-04-09T17:36:14.190Z,35.50
2017-04-09T17:37:12.547Z,35.30
2017-04-09T17:38:10.869Z,35.70
2017-04-09T17:39:09.238Z,35.70
2017-04-09T17:40:08.345Z,35.80
2017-04-09T17:41:06.658Z,35.80
2017-04-09T17:42:05.748Z,36.30
2017-04-09T17:43:05.592Z,36.50
2017-04-09T17:44:03.923Z,36.50
2017-04-09T17:45:03.127Z,35.50
2017-04-09T17:46:01.446Z,35.50
2017-04-09T17:46:59.786Z,36.00
2017-04-09T17:47:58.155Z,35.20
2017-04-09T17:48:58.023Z,35.10
2017-04-09T17:49:57.843Z,35.30
2017-04-09T17:50:56.189Z,35.30
2017-04-09T17:51:55.258Z,36.60
2017-04-09T17:52:55.077Z,37.10
2017-04-09T17:53:54.173Z,36.90
2017-04-09T17:54:53.294Z,36.60
2017-04-09T17:55:51.618Z,36.40
2017-04-09T17:56:50.697Z,37.20
2017-04-09T18:09:54.512Z,41.30
2017-04-09T18:10:53.093Z,41.20
2017-04-09T18:11:51.590Z,39.50
2017-04-09T18:12:50.175Z,38.70
2017-04-09T18:13:48.588Z,38.80
2017-04-09T18:14:46.972Z,38.50
2017-04-09T18:15:45.508Z,38.80
2017-04-09T18:16:44.051Z,39.40
2017-04-09T18:17:42.486Z,38.80
2017-04-09T18:18:40.973Z,39.20
2017-04-09T18:19:39.629Z,39.30
2017-04-09T18:20:38.066Z,39.30
2017-04-09T18:21:38.945Z,39.90
2017-04-09T18:22:37.440Z,40.10
2017-04-09T18:23:36.780Z,40.80
2017-04-09T18:24:35.135Z,41.00
2017-04-09T18:25:33.536Z,42.00
2017-04-09T18:26:32.718Z,42.70
2017-04-09T18:27:31.063Z,42.40
2017-04-09T18:28:29.392Z,43.60
2017-04-09T18:29:27.730Z,43.40
2017-04-09T18:30:26.038Z,42.90
2017-04-09T18:31:24.429Z,43.10
2017-04-09T18:32:23.354Z,43.10
2017-04-09T18:33:21.965Z,43.80
2017-04-09T18:34:20.415Z,44.00
2017-04-09T18:35:18.791Z,44.40
2017-04-09T18:36:17.129Z,44.00
2017-04-09T18:37:16.217Z,44.40
2017-04-09T18:38:14.535Z,44.30
2017-04-09T18:39:12.890Z,44.00
2017-04-09T18:40:11.250Z,43.80
2017-04-09T18:41:09.579Z,44.70
2017-04-09T18:42:07.921Z,45.00
2017-04-09T18:43:06.355Z,45.00
2017-04-09T18:44:04.652Z,45.30
2017-04-09T18:45:02.972Z,45.20
2017-04-09T18:46:01.301Z,45.20
2017-04-09T18:46:59.622Z,45.20
2017-04-09T18:47:57.930Z,45.60
2017-04-09T18:48:56.447Z,46.20
2017-04-09T18:49:54.778Z,46.00
2017-04-09T18:50:53.113Z,46.10
2017-04-09T18:51:51.435Z,46.60
2017-04-09T18:52:49.745Z,46.90
2017-04-09T18:53:48.058Z,46.70
2017-04-09T18:54:46.803Z,47.00
2017-04-09T18:55:45.117Z,47.30
2017-04-09T18:56:43.511Z,47.60
2017-04-09T18:57:41.825Z,48.20
2017-04-09T18:58:40.794Z,49.50
2017-04-09T18:59:39.109Z,50.30
2017-04-09T19:00:37.441Z,50.30
2017-04-09T19:01:35.758Z,50.10
2017-04-09T19:02:34.183Z,50.20
2017-04-09T19:03:32.527Z,49.70
2017-04-09T19:04:30.840Z,49.40
2017-04-09T19:05:29.166Z,49.50
2017-04-09T19:06:27.491Z,49.40
2017-04-09T19:07:25.799Z,48.50
2017-04-09T19:08:24.178Z,48.50
2017-04-09T19:09:22.591Z,48.70
2017-04-09T19:10:21.024Z,48.70
2017-04-09T19:11:19.386Z,49.60
2017-04-09T19:12:17.715Z,49.00
2017-04-09T19:13:16.071Z,48.90
2017-04-09T19:14:14.507Z,49.20
2017-04-09T19:15:12.867Z,49.10
2017-04-09T19:16:11.179Z,49.30
2017-04-09T19:17:09.493Z,49.20
2017-04-09T19:18:07.846Z,49.90
2017-04-09T19:19:06.193Z,49.40
2017-04-09T19:20:04.603Z,49.60
2017-04-09T19:21:02.967Z,50.00
2017-04-09T19:22:01.335Z,49.60
2017-04-09T19:22:59.650Z,51.20
2017-04-09T19:23:57.975Z,50.50
2017-04-09T19:24:56.282Z,50.10
2017-04-09T19:25:54.713Z,50.10
2017-04-09T19:26:53.044Z,50.40
2017-04-09T19:37:31.549Z,50.10
2017-04-09T19:38:29.944Z,52.20
2017-04-09T19:39:28.335Z,52.30
2017-04-09T19:40:26.677Z,52.50
2017-04-09T19:41:25.234Z,52.30
2017-04-09T19:42:23.585Z,52.30
2017-04-09T19:43:22.015Z,52.50
2017-04-09T19:44:20.351Z,52.30
2017-04-09T19:45:18.754Z,52.60
2017-04-09T19:46:17.150Z,52.30
2017-04-09T19:47:15.469Z,52.40
2017-04-09T19:48:13.786Z,52.70
2017-04-09T19:49:12.203Z,52.80
2017-04-09T19:50:10.767Z,52.80
2017-04-09T19:51:09.484Z,52.90
2017-04-09T19:52:07.868Z,53.20
2017-04-09T19:53:06.223Z,53.40
2017-04-09T19:54:04.595Z,53.20
2017-04-09T19:55:03.030Z,52.90
2017-04-09T19:56:01.345Z,53.40
2017-04-09T19:56:59.665Z,53.70
2017-04-09T19:57:58.470Z,53.90
2017-04-09T19:58:56.894Z,53.70
2017-04-09T19:59:55.697Z,54.20
2017-04-09T20:00:54.308Z,54.20
2017-04-09T20:01:52.630Z,54.70
2017-04-09T20:02:51.346Z,54.70
2017-04-09T20:03:49.710Z,54.40
2017-04-09T20:04:48.034Z,54.60
2017-04-09T20:05:46.398Z,54.50
2017-04-09T20:06:44.795Z,54.80
2017-04-09T20:07:43.112Z,54.60
2017-04-09T20:08:41.439Z,55.20
2017-04-09T20:09:39.764Z,55.20
2017-04-09T20:10:38.089Z,54.80
2017-04-09T20:11:36.574Z,54.80
2017-04-09T20:12:34.978Z,54.60
2017-04-09T20:13:33.300Z,54.80
2017-04-09T20:14:31.615Z,55.10
2017-04-09T20:15:29.956Z,54.80
2017-04-09T20:16:28.263Z,54.60
2017-04-09T20:17:26.635Z,56.10
2017-04-09T20:18:25.021Z,55.80
2017-04-09T20:19:23.341Z,55.30
2017-04-09T20:20:21.918Z,56.20
2017-04-09T20:21:20.241Z,55.50
2017-04-09T20:22:18.588Z,55.00
2017-04-09T20:23:16.963Z,55.10
2017-04-09T20:24:15.353Z,55.80
2017-04-09T20:25:13.659Z,55.80
2017-04-09T20:26:11.989Z,55.90
2017-04-09T20:27:10.302Z,55.90
2017-04-09T20:28:08.646Z,56.10
2017-04-09T20:29:06.974Z,56.40
2017-04-09T20:30:05.358Z,56.30
2017-04-09T20:31:03.686Z,55.90
2017-04-09T20:32:01.997Z,55.40
2017-04-09T20:33:00.404Z,55.30
2017-04-09T20:33:58.710Z,55.90
2017-04-09T20:34:57.043Z,57.10
2017-04-09T20:35:55.455Z,56.20
2017-04-09T20:36:53.886Z,56.20
2017-04-09T20:37:52.287Z,56.40
2017-04-09T20:38:51.235Z,56.40
2017-04-09T20:39:49.603Z,57.80
2017-04-09T20:40:47.926Z,58.60
2017-04-09T20:41:46.319Z,57.80
2017-04-09T20:42:44.618Z,57.40
2017-04-09T20:43:42.990Z,57.20
2017-04-09T20:44:41.302Z,57.20
2017-04-09T20:45:39.656Z,56.80
2017-04-09T20:46:37.934Z,56.70
2017-04-09T20:47:36.347Z,57.10
2017-04-09T20:48:34.706Z,57.40
2017-04-09T20:49:33.029Z,57.20
2017-04-09T20:50:31.341Z,57.30
2017-04-09T20:51:29.693Z,57.80
2017-04-09T20:52:28.777Z,58.40
2017-04-09T20:53:27.198Z,58.30
2017-04-09T20:54:25.607Z,57.50
2017-04-09T20:55:23.938Z,58.00
2017-04-09T20:56:22.540Z,57.50
2017-04-09T20:57:20.833Z,57.80
2017-04-09T20:58:19.158Z,57.60
2017-04-09T20:59:17.593Z,56.90
2017-04-09T21:00:15.895Z,56.70
2017-04-09T21:01:14.217Z,56.50
2017-04-09T21:02:12.536Z,56.80
2017-04-09T21:03:10.843Z,57.00
2017-04-09T21:04:09.181Z,56.90
2017-04-09T21:05:07.617Z,57.40
2017-04-09T21:06:05.956Z,57.00
2017-04-09T21:07:04.294Z,57.30
2017-04-09T21:08:02.620Z,57.20
2017-04-09T21:09:00.967Z,57.20
2017-04-09T21:09:59.284Z,57.00
2017-04-09T21:10:57.686Z,56.60
2017-04-09T21:11:56.017Z,56.50
2017-04-09T21:12:54.350Z,55.90
2017-04-09T21:13:52.650Z,56.20
2017-04-09T21:14:50.959Z,56.10
2017-04-09T21:15:49.277Z,56.20
2017-04-09T21:16:47.676Z,56.50
2017-04-09T21:17:45.999Z,56.60
2017-04-09T21:18:44.309Z,56.10
2017-04-09T21:19:42.630Z,55.80
2017-04-09T21:20:40.929Z,55.50
2017-04-09T21:21:39.259Z,55.50
2017-04-09T21:22:37.653Z,55.60
2017-04-09T21:23:36.374Z,55.50
2017-04-09T21:24:34.722Z,55.00
2017-04-09T21:25:33.051Z,54.70
2017-04-09T21:26:31.353Z,54.80
2017-04-09T21:27:29.692Z,55.00
2017-04-09T21:28:28.070Z,55.10
2017-04-09T21:29:26.368Z,55.70
2017-04-09T21:30:24.691Z,54.30
2017-04-09T21:31:22.995Z,53.90
2017-04-09T21:32:21.388Z,54.10
2017-04-09T21:33:19.777Z,54.20
2017-04-09T21:34:18.191Z,53.80
2017-04-09T21:35:16.494Z,53.80
2017-04-09T21:36:14.810Z,53.90
2017-04-09T21:37:13.203Z,54.10
2017-04-09T21:38:11.515Z,53.60
2017-04-09T21:39:09.900Z,53.40
2017-04-09T21:40:08.408Z,53.10
2017-04-09T21:41:06.837Z,52.60
2017-04-09T21:42:05.178Z,52.50
2017-04-09T21:43:03.506Z,52.60
2017-04-09T21:44:01.825Z,52.60
2017-04-09T21:45:00.154Z,52.60
2017-04-09T21:45:58.552Z,52.50
2017-04-09T21:46:56.859Z,52.60
2017-04-09T21:47:55.402Z,52.90
2017-04-09T21:48:53.730Z,53.20
2017-04-09T21:49:52.059Z,53.10
2017-04-09T21:50:50.366Z,53.30
2017-04-09T21:51:48.768Z,53.20
2017-04-09T21:52:47.106Z,52.60
2017-04-09T21:53:45.414Z,53.30
2017-04-09T21:54:43.723Z,52.70
2017-04-09T21:55:42.027Z,52.60
2017-04-09T21:56:40.354Z,52.50
2017-04-09T21:57:38.785Z,52.80
2017-04-09T21:58:37.094Z,52.50
2017-04-09T21:59:35.391Z,52.40
2017-04-09T22:00:33.719Z,52.70
2017-04-09T22:01:32.044Z,52.50
2017-04-09T22:02:30.389Z,51.70
2017-04-09T22:03:28.786Z,52.60
2017-04-09T22:04:27.114Z,52.60
2017-04-09T22:05:25.435Z,52.10
2017-04-09T22:06:23.793Z,51.90
2017-04-09T22:07:22.132Z,51.90
2017-04-09T22:08:20.468Z,52.10
2017-04-09T22:09:18.915Z,52.80
2017-04-09T22:10:17.228Z,51.00
2017-04-09T22:11:15.547Z,52.10
2017-04-09T22:12:13.877Z,54.30
2017-04-09T22:13:12.185Z,53.10
2017-04-09T22:14:12.951Z,54.60
2017-04-09T22:15:11.321Z,53.30
2017-04-09T22:16:09.638Z,53.30
2017-04-09T22:17:07.943Z,53.40
2017-04-09T22:18:06.349Z,51.90
2017-04-09T22:19:04.722Z,52.80
2017-04-09T22:20:03.018Z,52.10
2017-04-09T22:21:01.402Z,52.60
2017-04-09T22:21:59.701Z,53.00
2017-04-09T22:22:58.006Z,52.90
2017-04-09T22:23:56.320Z,53.30
2017-04-09T22:24:54.642Z,52.70
2017-04-09T22:25:53.006Z,52.70
2017-04-09T22:26:51.410Z,51.80
2017-04-09T22:27:49.788Z,56.10
2017-04-09T22:28:48.111Z,56.80
2017-04-09T22:29:46.417Z,53.90
2017-04-09T22:30:44.775Z,54.00
2017-04-09T22:31:43.396Z,53.90
2017-04-09T22:32:41.706Z,55.60
2017-04-09T22:33:40.015Z,53.70
2017-04-09T22:34:38.387Z,53.30
2017-04-09T22:35:36.707Z,53.50
2017-04-09T22:36:35.001Z,53.90
2017-04-09T22:37:33.563Z,52.80
2017-04-09T22:38:31.924Z,53.50
2017-04-09T22:39:30.315Z,52.60
2017-04-09T22:40:28.629Z,54.70
2017-04-09T22:41:26.953Z,54.00
2017-04-09T22:42:25.288Z,53.00
2017-04-09T22:43:23.685Z,51.90
2017-04-09T22:44:21.983Z,52.60
2017-04-09T22:45:20.280Z,52.80
2017-04-09T22:46:18.584Z,54.90
2017-04-09T22:47:16.904Z,54.70
2017-04-09T22:48:15.233Z,55.70
2017-04-09T22:49:13.634Z,54.20
2017-04-09T22:50:12.002Z,53.80
2017-04-09T22:51:10.374Z,54.30
2017-04-09T22:52:08.694Z,55.40
2017-04-09T22:53:06.995Z,52.30
2017-04-09T22:54:05.300Z,52.60
2017-04-09T22:55:03.680Z,50.60
2017-04-09T22:56:01.996Z,51.00
2017-04-09T22:57:00.350Z,51.90
2017-04-09T22:57:58.642Z,50.80
2017-04-09T22:58:56.954Z,49.90
2017-04-09T22:59:55.315Z,49.40
2017-04-09T23:00:53.778Z,48.00
2017-04-09T23:01:52.072Z,47.50
2017-04-09T23:02:50.386Z,47.30
2017-04-09T23:03:48.704Z,47.10
2017-04-09T23:04:46.998Z,46.80
2017-04-09T23:05:45.347Z,47.70
2017-04-09T23:06:43.748Z,46.40
2017-04-09T23:07:42.139Z,45.50
2017-04-09T23:08:40.461Z,45.70
2017-04-09T23:09:38.805Z,45.50
2017-04-09T23:10:37.098Z,45.20
2017-04-09T23:11:35.417Z,44.90
2017-04-09T23:12:33.931Z,44.90
2017-04-09T23:13:32.242Z,44.20
2017-04-09T23:14:30.531Z,43.90
2017-04-09T23:15:28.848Z,43.60
2017-04-09T23:16:27.205Z,43.70
2017-04-09T23:17:25.522Z,43.50
2017-04-09T23:18:23.931Z,43.40
2017-04-09T23:19:22.238Z,43.50
2017-04-09T23:20:20.771Z,43.30
2017-04-09T23:21:19.481Z,43.40
2017-04-09T23:22:17.813Z,43.00
2017-04-09T23:23:16.111Z,42.20
2017-04-09T23:24:14.967Z,42.30
2017-04-09T23:25:13.274Z,42.00
2017-04-09T23:26:11.745Z,41.40
2017-04-09T23:27:10.049Z,41.60
2017-04-09T23:28:08.358Z,41.60
2017-04-09T23:29:06.696Z,41.60
2017-04-09T23:30:05.077Z,41.90
2017-04-09T23:31:03.407Z,42.00
2017-04-09T23:32:01.752Z,42.10
2017-04-09T23:33:00.103Z,42.00
2017-04-09T23:33:58.418Z,42.30
2017-04-09T23:34:56.769Z,42.40
2017-04-09T23:35:55.206Z,42.30
2017-04-09T23:36:53.499Z,42.20
2017-04-09T23:37:51.846Z,41.80
2017-04-09T23:38:50.166Z,41.80
2017-04-09T23:39:48.466Z,41.50
2017-04-09T23:40:46.743Z,41.90
2017-04-09T23:41:45.565Z,42.00
2017-04-09T23:42:43.863Z,42.00
2017-04-09T23:43:42.227Z,41.90
2017-04-09T23:44:40.575Z,42.00
2017-04-09T23:45:38.861Z,42.20
2017-04-09T23:46:37.153Z,42.60
2017-04-09T23:47:35.555Z,42.70
2017-04-09T23:48:33.885Z,42.70
2017-04-09T23:49:32.214Z,43.30
2017-04-09T23:50:30.515Z,42.90
2017-04-09T23:51:28.831Z,43.30
2017-04-09T23:52:27.132Z,43.70
2017-04-09T23:53:25.662Z,43.90
2017-04-09T23:54:24.029Z,44.60
2017-04-09T23:55:22.426Z,44.50
2017-04-09T23:56:20.993Z,44.10
2017-04-09T23:57:19.314Z,44.20
2017-04-09T23:58:17.629Z,44.70
2017-04-09T23:59:16.070Z,44.40
